Time;durP1;ratioP1;P1;durP2;ratioP2;P2;SDS_P1;SDS_P2;PMS_P1;PMS_P2;Temp;Humidity;BMP_temperature;BMP_pressure;BME280_temperature;BME280_humidity;BME280_pressure;Samples;Min_cycle;Max_cycle;Signal;HPM_P1;HPM_P2
2022/06/22 00:00:17;;;;;;;6.32;5.40;;;;;;;;;;6185602;28;20071;-81
2022/06/22 00:03:20;;;;;;;6.53;5.30;;;;;;;;;;6189822;28;20046;-81
2022/06/22 00:06:45;;;;;;;7.35;5.30;;;;;;;;;;6194713;28;20043;-82
2022/06/22 00:09:54;;;;;;;7.20;5.57;;;;;;;;;;6199262;28;20147;-79
2022/06/22 00:12:58;;;;;;;7.65;5.50;;;;;;;;;;6202383;28;20081;-79
2022/06/22 00:16:03;;;;;;;6.75;5.28;;;;;;;;;;6171055;28;20058;-79
2022/06/22 00:19:20;;;;;;;7.57;4.90;;;;;;;;;;6193078;28;20103;-79
2022/06/22 00:22:27;;;;;;;10.98;5.28;;;;;;;;;;6199226;28;20065;-78
2022/06/22 00:25:38;;;;;;;6.47;5.07;;;;;;;;;;6172100;28;20036;-79
2022/06/22 00:29:02;;;;;;;8.60;5.43;;;;;;;;;;6171790;28;20054;-80
2022/06/22 00:32:17;;;;;;;7.88;5.35;;;;;;;;;;6202441;28;20053;-79
2022/06/22 00:35:47;;;;;;;7.80;5.22;;;;;;;;;;6199605;28;20047;-77
2022/06/22 00:38:48;;;;;;;6.53;5.45;;;;;;;;;;6193419;28;20081;-78
2022/06/22 00:41:56;;;;;;;6.53;5.63;;;;;;;;;;6203389;28;20077;-79
2022/06/22 00:45:06;;;;;;;10.07;5.78;;;;;;;;;;6189776;28;20078;-79
2022/06/22 00:48:22;;;;;;;9.07;5.38;;;;;;;;;;6186750;28;20051;-81
2022/06/22 00:51:31;;;;;;;6.05;5.10;;;;;;;;;;6198588;28;20070;-80
2022/06/22 00:54:34;;;;;;;7.93;5.22;;;;;;;;;;6181031;28;20039;-80
2022/06/22 00:57:40;;;;;;;5.72;4.57;;;;;;;;;;6177403;28;20078;-79
2022/06/22 01:01:07;;;;;;;5.75;4.35;;;;;;;;;;6179573;28;20082;-77
2022/06/22 01:04:17;;;;;;;7.55;4.55;;;;;;;;;;6202075;28;20034;-80
2022/06/22 01:07:29;;;;;;;6.50;5.00;;;;;;;;;;6197300;28;20057;-79
2022/06/22 01:10:42;;;;;;;7.22;5.15;;;;;;;;;;6205586;28;20046;-79
2022/06/22 01:13:48;;;;;;;7.17;5.37;;;;;;;;;;6190762;28;20047;-78
2022/06/22 01:16:53;;;;;;;5.72;5.22;;;;;;;;;;6200807;28;20046;-79
2022/06/22 01:20:02;;;;;;;6.70;5.82;;;;;;;;;;6182297;28;20054;-82
2022/06/22 01:23:16;;;;;;;8.63;5.75;;;;;;;;;;6182489;28;20173;-83
2022/06/22 01:26:48;;;;;;;7.40;5.28;;;;;;;;;;6183901;28;20074;-81
2022/06/22 01:29:54;;;;;;;7.93;5.57;;;;;;;;;;6182343;28;20050;-82
2022/06/22 01:32:56;;;;;;;6.00;5.10;;;;;;;;;;6175648;28;20639;-83
2022/06/22 01:36:02;;;;;;;10.80;6.03;;;;;;;;;;6176953;28;20672;-84
2022/06/22 01:39:03;;;;;;;8.15;5.55;;;;;;;;;;6161196;28;20038;-84
2022/06/22 01:42:26;;;;;;;6.25;5.60;;;;;;;;;;6164690;28;20133;-82
2022/06/22 01:45:40;;;;;;;7.25;5.32;;;;;;;;;;6167156;28;20053;-83
2022/06/22 01:49:03;;;;;;;6.07;5.03;;;;;;;;;;6173845;28;20420;-83
2022/06/22 01:52:11;;;;;;;6.53;4.85;;;;;;;;;;6178174;28;20049;-83
2022/06/22 01:55:37;;;;;;;5.82;5.22;;;;;;;;;;6182083;28;20522;-83
2022/06/22 01:58:55;;;;;;;8.60;5.45;;;;;;;;;;6177449;28;20762;-83
2022/06/22 02:01:59;;;;;;;6.47;5.68;;;;;;;;;;6176852;28;20074;-82
2022/06/22 02:05:04;;;;;;;7.10;5.60;;;;;;;;;;6177802;28;20200;-85
2022/06/22 02:08:22;;;;;;;8.48;6.18;;;;;;;;;;6182338;28;20120;-83
2022/06/22 02:11:28;;;;;;;6.78;5.85;;;;;;;;;;6182359;28;20053;-82
2022/06/22 02:14:31;;;;;;;7.63;5.53;;;;;;;;;;6182952;28;20049;-83
2022/06/22 02:17:38;;;;;;;8.18;6.00;;;;;;;;;;6188468;28;20141;-83
2022/06/22 02:20:40;;;;;;;7.70;5.93;;;;;;;;;;6176569;28;20046;-84
2022/06/22 02:23:43;;;;;;;8.45;5.45;;;;;;;;;;6180895;28;20043;-84
2022/06/22 02:27:08;;;;;;;7.78;5.20;;;;;;;;;;6184561;28;20051;-81
2022/06/22 02:30:10;;;;;;;6.70;5.10;;;;;;;;;;6182114;28;20632;-82
2022/06/22 02:33:12;;;;;;;9.52;6.20;;;;;;;;;;6187422;28;20074;-78
2022/06/22 02:36:14;;;;;;;7.10;5.73;;;;;;;;;;6182666;28;20409;-79
2022/06/22 02:39:18;;;;;;;7.68;5.22;;;;;;;;;;6189281;28;20574;-85
2022/06/22 02:45:43;;;;;;;5.38;4.70;;;;;;;;;;6176392;28;21416;-80
2022/06/22 02:48:49;;;;;;;8.02;5.50;;;;;;;;;;6181697;28;20046;-86
2022/06/22 02:51:53;;;;;;;7.00;5.25;;;;;;;;;;6185831;28;20582;-81
2022/06/22 02:54:59;;;;;;;6.15;4.57;;;;;;;;;;6186751;28;20072;-80
2022/06/22 02:58:02;;;;;;;7.03;4.72;;;;;;;;;;6175961;28;20046;-85
2022/06/22 03:01:12;;;;;;;7.57;4.95;;;;;;;;;;6186586;28;20118;-85
2022/06/22 03:04:15;;;;;;;7.15;5.07;;;;;;;;;;6174341;28;20454;-81
2022/06/22 03:07:19;;;;;;;8.63;5.65;;;;;;;;;;6182447;28;20046;-84
2022/06/22 03:10:52;;;;;;;9.13;5.18;;;;;;;;;;6150142;28;20118;-83
2022/06/22 03:14:13;;;;;;;8.75;5.97;;;;;;;;;;6170332;28;20057;-83
2022/06/22 03:17:17;;;;;;;14.52;5.82;;;;;;;;;;6183896;28;20069;-82
2022/06/22 03:20:22;;;;;;;7.65;5.10;;;;;;;;;;6177921;28;20053;-81
2022/06/22 03:23:45;;;;;;;9.32;5.18;;;;;;;;;;6168667;28;20057;-78
2022/06/22 03:26:55;;;;;;;6.88;4.75;;;;;;;;;;6178706;28;20128;-79
2022/06/22 03:30:03;;;;;;;7.10;5.07;;;;;;;;;;6179055;28;20127;-82
2022/06/22 03:33:09;;;;;;;6.85;5.13;;;;;;;;;;6182082;28;20062;-85
2022/06/22 03:36:27;;;;;;;7.43;4.97;;;;;;;;;;6181997;28;20046;-82
2022/06/22 03:39:33;;;;;;;7.43;5.13;;;;;;;;;;6166866;28;20616;-86
2022/06/22 03:42:46;;;;;;;6.50;4.97;;;;;;;;;;6157350;28;20071;-85
2022/06/22 03:45:57;;;;;;;8.10;4.93;;;;;;;;;;6178767;28;20085;-83
2022/06/22 03:49:09;;;;;;;7.82;4.97;;;;;;;;;;6176744;28;20585;-85
2022/06/22 03:52:19;;;;;;;7.28;5.35;;;;;;;;;;6173642;28;20662;-82
2022/06/22 03:55:30;;;;;;;9.30;6.30;;;;;;;;;;6187860;28;20106;-83
2022/06/22 03:58:32;;;;;;;7.45;5.28;;;;;;;;;;6172522;28;20053;-87
2022/06/22 04:01:35;;;;;;;7.93;5.00;;;;;;;;;;6182493;28;20050;-84
2022/06/22 04:04:37;;;;;;;;;;;;;;;;;;6177397;28;20050;-83
2022/06/22 04:07:39;;;;;;;8.70;5.63;;;;;;;;;;6173366;28;20044;-85
2022/06/22 04:10:50;;;;;;;6.27;4.93;;;;;;;;;;6171792;28;20102;-83
2022/06/22 04:14:01;;;;;;;7.13;4.80;;;;;;;;;;6170812;28;20461;-84
2022/06/22 04:17:08;;;;;;;6.70;5.05;;;;;;;;;;6175860;28;20047;-84
2022/06/22 04:20:22;;;;;;;8.70;5.60;;;;;;;;;;6163380;28;20043;-82
2022/06/22 04:23:38;;;;;;;;;;;;;;;;;;6157443;28;20065;-84
2022/06/22 04:27:06;;;;;;;11.00;5.88;;;;;;;;;;6166938;28;20001;-85
2022/06/22 04:30:18;;;;;;;7.88;5.47;;;;;;;;;;6171152;28;20494;-84
2022/06/22 04:33:22;;;;;;;7.65;5.40;;;;;;;;;;6158943;28;20047;-87
2022/06/22 04:36:54;;;;;;;8.43;5.93;;;;;;;;;;6175362;28;20291;-81
2022/06/22 04:40:28;;;;;;;6.70;5.30;;;;;;;;;;6166667;28;20070;-84
2022/06/22 04:43:30;;;;;;;;;;;;;;;;;;6176731;28;20066;-84
2022/06/22 04:46:34;;;;;;;7.80;5.07;;;;;;;;;;6176620;28;19953;-83
2022/06/22 04:49:50;;;;;;;6.40;4.80;;;;;;;;;;6178957;28;20125;-83
2022/06/22 04:52:55;;;;;;;5.63;4.63;;;;;;;;;;6169576;28;20055;-84
2022/06/22 04:56:01;;;;;;;6.30;5.50;;;;;;;;;;6174607;28;20073;-82
2022/06/22 04:59:04;;;;;;;6.72;5.10;;;;;;;;;;6183122;28;20136;-81
2022/06/22 05:02:09;;;;;;;9.38;5.57;;;;;;;;;;6181796;28;20039;-86
2022/06/22 05:05:19;;;;;;;7.70;5.55;;;;;;;;;;6171440;28;20046;-84
2022/06/22 05:08:32;;;;;;;7.28;5.22;;;;;;;;;;6178988;28;20139;-83
2022/06/22 05:11:42;;;;;;;10.88;5.43;;;;;;;;;;6169576;28;20042;-84
2022/06/22 05:14:45;;;;;;;6.15;5.00;;;;;;;;;;6175274;28;20042;-85
2022/06/22 05:17:48;;;;;;;8.60;4.80;;;;;;;;;;6181626;28;20045;-82
2022/06/22 05:21:16;;;;;;;7.37;5.43;;;;;;;;;;6173149;28;20062;-82
2022/06/22 05:24:24;;;;;;;8.38;4.68;;;;;;;;;;6184347;28;20124;-85
2022/06/22 05:27:41;;;;;;;8.07;4.95;;;;;;;;;;6193038;28;20052;-83
2022/06/22 05:30:49;;;;;;;5.53;4.40;;;;;;;;;;6183240;28;20061;-83
2022/06/22 05:33:58;;;;;;;7.00;4.65;;;;;;;;;;6179819;28;20042;-81
2022/06/22 05:37:04;;;;;;;7.10;4.68;;;;;;;;;;6182386;28;20122;-82
2022/06/22 05:40:06;;;;;;;7.55;4.88;;;;;;;;;;6188508;28;20167;-82
2022/06/22 05:43:08;;;;;;;8.52;4.72;;;;;;;;;;6188238;28;20121;-88
2022/06/22 05:46:11;;;;;;;6.25;4.65;;;;;;;;;;6179491;28;20129;-84
2022/06/22 05:49:16;;;;;;;6.22;4.32;;;;;;;;;;6172994;28;20075;-80
2022/06/22 05:52:44;;;;;;;6.57;4.47;;;;;;;;;;6149912;28;20083;-82
2022/06/22 05:55:53;;;;;;;6.10;4.53;;;;;;;;;;6157044;28;20051;-80
2022/06/22 05:59:15;;;;;;;5.88;4.07;;;;;;;;;;6179470;28;20053;-81
2022/06/22 06:02:36;;;;;;;6.03;4.07;;;;;;;;;;6179501;28;20049;-83
2022/06/22 06:05:48;;;;;;;6.18;4.10;;;;;;;;;;6174688;28;20134;-81
2022/06/22 06:08:56;;;;;;;3.97;3.60;;;;;;;;;;6180359;28;20085;-84
2022/06/22 06:12:17;;;;;;;9.40;3.78;;;;;;;;;;6184565;28;20680;-82
2022/06/22 06:15:18;;;;;;;7.13;3.85;;;;;;;;;;6180745;28;20265;-84
2022/06/22 06:18:33;;;;;;;6.60;4.20;;;;;;;;;;6162690;28;20088;-87
2022/06/22 06:21:37;;;;;;;8.40;4.15;;;;;;;;;;6186222;28;20054;-86
2022/06/22 06:28:19;;;;;;;6.10;3.45;;;;;;;;;;6167006;28;20125;-86
2022/06/22 06:31:41;;;;;;;6.10;3.63;;;;;;;;;;6185895;28;20062;-81
2022/06/22 06:34:51;;;;;;;8.00;3.60;;;;;;;;;;6168350;28;20057;-84
2022/06/22 06:38:18;;;;;;;6.25;3.15;;;;;;;;;;6176037;28;20135;-81
2022/06/22 06:41:47;;;;;;;3.53;2.90;;;;;;;;;;6184112;28;20119;-85
2022/06/22 06:44:50;;;;;;;7.90;3.47;;;;;;;;;;6178502;28;20049;-83
2022/06/22 06:47:57;;;;;;;8.68;3.75;;;;;;;;;;6182963;28;20057;-86
2022/06/22 06:51:03;;;;;;;7.28;3.40;;;;;;;;;;6172113;28;20109;-82
2022/06/22 06:54:34;;;;;;;3.78;2.90;;;;;;;;;;6146468;28;20057;-82
2022/06/22 06:57:38;;;;;;;7.25;3.15;;;;;;;;;;6191733;28;20049;-82
2022/06/22 07:00:40;;;;;;;5.75;3.33;;;;;;;;;;6178648;28;20043;-84
2022/06/22 07:03:43;;;;;;;7.47;3.20;;;;;;;;;;6172041;28;20043;-84
2022/06/22 07:06:45;;;;;;;7.47;3.30;;;;;;;;;;6184638;28;20047;-83
2022/06/22 07:09:48;;;;;;;;;;;;;;;;;;6166977;28;20043;-86
2022/06/22 07:13:01;;;;;;;6.78;2.55;;;;;;;;;;6190914;28;19926;-83
2022/06/22 07:16:09;;;;;;;7.90;2.90;;;;;;;;;;6164721;28;20049;-83
2022/06/22 07:19:53;;;;;;;4.78;2.80;;;;;;;;;;6173084;28;20042;-82
2022/06/22 07:23:10;;;;;;;4.13;2.70;;;;;;;;;;6181776;28;20053;-82
2022/06/22 07:26:19;;;;;;;6.05;2.42;;;;;;;;;;6175050;28;20054;-80
2022/06/22 07:29:54;;;;;;;5.60;2.40;;;;;;;;;;6191723;28;20096;-84
2022/06/22 07:33:09;;;;;;;5.63;2.42;;;;;;;;;;6179627;28;20069;-79
2022/06/22 07:36:33;;;;;;;5.53;2.40;;;;;;;;;;6196230;28;20051;-79
2022/06/22 07:39:47;;;;;;;4.72;2.22;;;;;;;;;;6179422;28;20038;-79
2022/06/22 07:42:54;;;;;;;5.38;2.20;;;;;;;;;;6174085;28;20053;-80
2022/06/22 07:45:56;;;;;;;3.40;2.20;;;;;;;;;;6178390;28;20520;-80
2022/06/22 07:49:31;;;;;;;4.72;2.00;;;;;;;;;;6179142;28;20054;-79
2022/06/22 07:52:39;;;;;;;3.90;2.28;;;;;;;;;;6163785;28;20102;-80
2022/06/22 07:55:59;;;;;;;2.60;2.10;;;;;;;;;;6177768;28;20039;-80
2022/06/22 07:59:08;;;;;;;4.03;1.92;;;;;;;;;;6167557;28;20404;-78
2022/06/22 08:02:16;;;;;;;3.55;2.00;;;;;;;;;;6165184;28;20066;-80
2022/06/22 08:05:22;;;;;;;3.88;2.00;;;;;;;;;;6164630;28;20129;-80
2022/06/22 08:08:33;;;;;;;3.28;1.95;;;;;;;;;;6172539;28;20061;-80
2022/06/22 08:12:17;;;;;;;2.53;1.67;;;;;;;;;;6163716;28;20046;-80
2022/06/22 08:15:19;;;;;;;;;;;;;;;;;;6133145;28;20051;-80
2022/06/22 08:18:21;;;;;;;1.60;1.45;;;;;;;;;;6175392;28;19934;-79
2022/06/22 08:21:23;;;;;;;2.03;1.40;;;;;;;;;;6142865;28;20130;-80
2022/06/22 08:24:27;;;;;;;1.45;1.35;;;;;;;;;;6148206;28;20130;-80
2022/06/22 08:27:30;;;;;;;2.55;1.20;;;;;;;;;;6161557;28;20058;-78
2022/06/22 08:30:32;;;;;;;2.80;1.50;;;;;;;;;;6169494;28;20117;-81
2022/06/22 08:34:00;;;;;;;1.37;1.20;;;;;;;;;;6176123;28;20043;-81
2022/06/22 08:37:07;;;;;;;1.35;1.20;;;;;;;;;;6179035;28;20046;-80
2022/06/22 08:40:24;;;;;;;2.00;1.30;;;;;;;;;;6171139;28;20047;-79
2022/06/22 08:43:50;;;;;;;3.70;1.38;;;;;;;;;;6176683;28;20124;-79
2022/06/22 08:47:01;;;;;;;2.85;1.27;;;;;;;;;;6170790;28;20194;-80
2022/06/22 08:50:20;;;;;;;4.07;1.30;;;;;;;;;;6172643;28;20477;-80
2022/06/22 08:53:40;;;;;;;1.75;1.50;;;;;;;;;;6174443;28;20055;-80
2022/06/22 08:57:02;;;;;;;1.95;1.58;;;;;;;;;;6170033;28;20105;-80
2022/06/22 09:00:28;;;;;;;1.65;1.40;;;;;;;;;;6157190;28;20534;-79
2022/06/22 09:03:37;;;;;;;2.90;1.38;;;;;;;;;;6147956;28;20057;-81
2022/06/22 09:07:00;;;;;;;1.45;1.30;;;;;;;;;;6172125;28;20415;-80
2022/06/22 09:10:43;;;;;;;1.27;1.17;;;;;;;;;;6172982;28;20049;-80
2022/06/22 09:13:59;;;;;;;2.83;1.50;;;;;;;;;;6170920;28;20046;-78
2022/06/22 09:17:13;;;;;;;2.20;1.27;;;;;;;;;;6175817;28;20110;-80
2022/06/22 09:20:43;;;;;;;1.45;1.30;;;;;;;;;;6170987;28;20082;-81
2022/06/22 09:24:20;;;;;;;4.15;1.20;;;;;;;;;;6172216;28;20389;-81
2022/06/22 09:27:40;;;;;;;3.05;1.20;;;;;;;;;;6172822;28;20046;-79
2022/06/22 09:31:07;;;;;;;1.33;1.15;;;;;;;;;;6176033;28;20138;-80
2022/06/22 09:35:02;;;;;;;1.40;1.20;;;;;;;;;;6173585;28;20046;-80
2022/06/22 09:38:13;;;;;;;2.05;1.40;;;;;;;;;;6151944;28;20122;-79
2022/06/22 09:41:31;;;;;;;2.35;1.42;;;;;;;;;;6179534;28;20093;-81
2022/06/22 09:44:35;;;;;;;1.40;1.30;;;;;;;;;;6174558;28;20118;-81
2022/06/22 09:48:06;;;;;;;1.65;1.33;;;;;;;;;;6175127;28;20129;-81
2022/06/22 09:51:23;;;;;;;2.13;1.40;;;;;;;;;;6181077;28;20105;-82
2022/06/22 09:58:23;;;;;;;1.50;1.40;;;;;;;;;;6155977;28;20125;-81
2022/06/22 10:01:24;;;;;;;1.30;1.20;;;;;;;;;;6175463;28;20334;-81
2022/06/22 10:05:09;;;;;;;1.50;1.40;;;;;;;;;;6172464;28;20043;-81
2022/06/22 10:08:13;;;;;;;1.95;1.38;;;;;;;;;;6176257;28;20131;-83
2022/06/22 10:11:23;;;;;;;1.42;1.33;;;;;;;;;;6173032;28;20053;-81
2022/06/22 10:14:37;;;;;;;1.40;1.30;;;;;;;;;;6168375;28;20514;-82
2022/06/22 10:17:54;;;;;;;2.50;1.40;;;;;;;;;;6174052;28;20049;-83
2022/06/22 10:21:22;;;;;;;2.97;1.35;;;;;;;;;;6161541;28;20055;-81
2022/06/22 10:24:55;;;;;;;2.33;1.38;;;;;;;;;;6156351;28;20161;-81
2022/06/22 10:28:34;;;;;;;3.22;1.20;;;;;;;;;;6180015;28;20050;-81
2022/06/22 10:32:09;;;;;;;2.22;1.50;;;;;;;;;;6170050;28;20050;-82
2022/06/22 10:35:23;;;;;;;1.95;1.30;;;;;;;;;;6180681;28;20057;-80
2022/06/22 10:38:46;;;;;;;3.92;1.85;;;;;;;;;;6180066;28;20102;-81
2022/06/22 10:45:34;;;;;;;1.67;1.40;;;;;;;;;;6154947;28;20151;-82
2022/06/22 10:49:04;;;;;;;7.25;3.55;;;;;;;;;;6165421;28;20085;-83
2022/06/22 10:52:40;;;;;;;2.67;1.40;;;;;;;;;;6175950;28;20049;-82
2022/06/22 10:56:00;;;;;;;1.73;1.50;;;;;;;;;;6179284;28;20059;-82
2022/06/22 10:59:32;;;;;;;1.85;1.52;;;;;;;;;;6181826;28;20148;-80
2022/06/22 11:03:21;;;;;;;6.70;2.90;;;;;;;;;;6174928;28;20054;-79
2022/06/22 11:06:27;;;;;;;2.50;1.50;;;;;;;;;;6163047;28;20049;-83
2022/06/22 11:09:49;;;;;;;3.97;2.40;;;;;;;;;;6160336;28;20102;-83
2022/06/22 11:13:02;;;;;;;4.38;1.90;;;;;;;;;;6180681;28;20126;-79
2022/06/22 11:16:10;;;;;;;1.65;1.40;;;;;;;;;;6180079;28;20045;-82
2022/06/22 11:19:30;;;;;;;3.75;2.00;;;;;;;;;;6157124;28;20050;-82
2022/06/22 11:22:39;;;;;;;5.85;1.92;;;;;;;;;;6157486;28;20120;-81
2022/06/22 11:33:17;;;;;;;2.00;1.52;;;;;;;;;;6173113;28;20834;-81
2022/06/22 11:36:24;;;;;;;1.80;1.25;;;;;;;;;;6179878;28;20088;-82
2022/06/22 11:40:23;;;;;;;1.95;1.40;;;;;;;;;;6172004;28;20054;-82
2022/06/22 11:43:58;;;;;;;2.45;1.30;;;;;;;;;;6178751;28;20038;-84
2022/06/22 11:47:15;;;;;;;1.48;1.25;;;;;;;;;;6173325;28;20120;-82
2022/06/22 11:50:20;;;;;;;1.52;1.42;;;;;;;;;;6177271;28;20047;-81
2022/06/22 11:53:31;;;;;;;3.08;1.35;;;;;;;;;;6176250;28;20047;-80
2022/06/22 11:56:49;;;;;;;2.05;1.42;;;;;;;;;;6173261;28;20613;-82
2022/06/22 12:00:28;;;;;;;1.77;1.23;;;;;;;;;;6176072;28;20124;-82
2022/06/22 12:03:57;;;;;;;1.60;1.50;;;;;;;;;;6165488;28;20070;-81
2022/06/22 12:07:24;;;;;;;1.27;1.10;;;;;;;;;;6176296;28;20050;-81
2022/06/22 12:10:54;;;;;;;1.20;1.10;;;;;;;;;;6152655;28;20051;-80
2022/06/22 12:17:31;;;;;;;1.95;1.30;;;;;;;;;;6186070;28;20054;-83
2022/06/22 12:20:58;;;;;;;3.10;1.30;;;;;;;;;;6143394;28;20401;-81
2022/06/22 12:24:23;;;;;;;2.20;1.23;;;;;;;;;;6154961;28;20202;-82
2022/06/22 12:27:30;;;;;;;1.38;1.27;;;;;;;;;;6178316;28;20125;-82
2022/06/22 12:31:08;;;;;;;2.72;1.58;;;;;;;;;;6153451;28;20137;-84
2022/06/22 12:34:25;;;;;;;2.97;1.40;;;;;;;;;;6183516;28;20096;-82
2022/06/22 12:37:30;;;;;;;1.65;1.35;;;;;;;;;;6179660;28;20042;-83
2022/06/22 12:40:54;;;;;;;1.48;1.35;;;;;;;;;;6154957;28;20042;-82
2022/06/22 12:44:43;;;;;;;1.20;1.20;;;;;;;;;;6177480;28;20050;-82
2022/06/22 12:49:04;;;;;;;3.00;1.40;;;;;;;;;;6143060;28;20058;-82
2022/06/22 12:52:21;;;;;;;1.30;1.20;;;;;;;;;;6138276;28;20770;-82
2022/06/22 12:55:31;;;;;;;1.83;1.17;;;;;;;;;;6176440;28;20492;-82
2022/06/22 12:58:45;;;;;;;1.90;1.42;;;;;;;;;;6139955;28;20051;-82
2022/06/22 13:01:47;;;;;;;1.67;1.40;;;;;;;;;;6174324;28;20518;-83
2022/06/22 13:04:55;;;;;;;2.38;1.23;;;;;;;;;;6170775;28;20061;-83
2022/06/22 13:07:59;;;;;;;1.58;1.33;;;;;;;;;;6174572;28;20094;-81
2022/06/22 13:11:03;;;;;;;2.42;1.33;;;;;;;;;;6172733;28;20114;-82
2022/06/22 13:14:24;;;;;;;1.67;1.20;;;;;;;;;;6177873;28;20051;-81
2022/06/22 13:17:48;;;;;;;1.67;1.58;;;;;;;;;;6164228;28;20062;-85
2022/06/22 13:21:27;;;;;;;2.05;1.10;;;;;;;;;;6150175;28;20046;-83
2022/06/22 13:24:37;;;;;;;1.10;1.00;;;;;;;;;;6169867;28;20053;-83
2022/06/22 13:27:47;;;;;;;1.35;1.25;;;;;;;;;;6175448;28;20047;-86
2022/06/22 13:30:56;;;;;;;2.22;1.30;;;;;;;;;;6177014;28;20068;-83
2022/06/22 13:34:05;;;;;;;1.45;1.20;;;;;;;;;;6179794;28;20577;-85
2022/06/22 13:37:18;;;;;;;1.27;1.10;;;;;;;;;;6172695;28;20125;-83
2022/06/22 13:40:41;;;;;;;1.00;1.00;;;;;;;;;;6181184;28;20130;-84
2022/06/22 13:43:59;;;;;;;1.65;0.90;;;;;;;;;;6152234;28;20130;-86
2022/06/22 13:47:28;;;;;;;0.90;0.90;;;;;;;;;;6185669;28;20055;-81
2022/06/22 13:51:44;;;;;;;1.25;0.95;;;;;;;;;;6171217;28;20042;-83
2022/06/22 13:54:48;;;;;;;2.00;1.25;;;;;;;;;;6170785;28;20086;-81
2022/06/22 13:58:02;;;;;;;0.90;0.90;;;;;;;;;;6181654;28;20124;-83
2022/06/22 14:01:26;;;;;;;1.17;0.90;;;;;;;;;;6174516;28;20043;-84
2022/06/22 14:04:37;;;;;;;2.55;1.30;;;;;;;;;;6146971;28;20058;-86
2022/06/22 14:07:56;;;;;;;1.20;1.10;;;;;;;;;;6167790;28;20050;-83
2022/06/22 14:11:10;;;;;;;1.00;1.00;;;;;;;;;;6178472;28;20046;-84
2022/06/22 14:14:11;;;;;;;1.83;1.00;;;;;;;;;;6179781;28;20106;-82
2022/06/22 14:17:22;;;;;;;1.55;0.80;;;;;;;;;;6175925;28;20046;-82
2022/06/22 14:20:49;;;;;;;0.82;0.82;;;;;;;;;;6173162;28;20066;-82
2022/06/22 14:23:52;;;;;;;1.17;0.82;;;;;;;;;;6173838;28;20054;-84
2022/06/22 14:27:06;;;;;;;1.20;1.00;;;;;;;;;;6179456;28;20184;-84
2022/06/22 14:30:21;;;;;;;1.15;1.05;;;;;;;;;;6187018;28;20043;-82
2022/06/22 14:33:38;;;;;;;0.80;0.80;;;;;;;;;;6167926;28;20110;-83
2022/06/22 14:36:45;;;;;;;0.90;0.80;;;;;;;;;;6187507;28;20071;-82
2022/06/22 14:39:54;;;;;;;2.38;0.80;;;;;;;;;;6169267;28;20106;-81
2022/06/22 14:43:24;;;;;;;1.05;0.90;;;;;;;;;;6187343;28;20043;-84
2022/06/22 14:46:29;;;;;;;1.15;0.80;;;;;;;;;;6191992;28;20140;-84
2022/06/22 14:49:52;;;;;;;0.90;0.88;;;;;;;;;;6180699;28;20058;-85
2022/06/22 14:53:31;;;;;;;1.88;0.80;;;;;;;;;;6166095;28;20137;-83
2022/06/22 14:56:51;;;;;;;1.50;0.95;;;;;;;;;;6180744;28;20117;-82
2022/06/22 15:00:12;;;;;;;1.13;1.02;;;;;;;;;;6170258;28;20050;-83
2022/06/22 15:03:24;;;;;;;0.80;0.77;;;;;;;;;;6181725;28;20106;-84
2022/06/22 15:06:44;;;;;;;1.42;0.90;;;;;;;;;;6181125;28;20046;-83
2022/06/22 15:09:55;;;;;;;2.95;1.20;;;;;;;;;;6175277;28;20085;-82
2022/06/22 15:13:41;;;;;;;1.25;1.15;;;;;;;;;;6183893;28;20077;-83
2022/06/22 15:16:50;;;;;;;1.00;1.00;;;;;;;;;;6168404;28;20051;-83
2022/06/22 15:19:58;;;;;;;1.83;1.27;;;;;;;;;;6179457;28;20166;-84
2022/06/22 15:23:05;;;;;;;1.08;1.00;;;;;;;;;;6183603;28;20484;-82
2022/06/22 15:26:20;;;;;;;1.90;0.85;;;;;;;;;;6190544;28;20038;-82
2022/06/22 15:29:31;;;;;;;1.45;1.00;;;;;;;;;;6197025;28;20073;-83
2022/06/22 15:32:38;;;;;;;1.27;0.88;;;;;;;;;;6165908;28;20049;-82
2022/06/22 15:35:59;;;;;;;4.82;1.20;;;;;;;;;;6183117;28;20057;-85
2022/06/22 15:39:30;;;;;;;1.00;0.90;;;;;;;;;;6188829;28;20501;-84
2022/06/22 15:43:04;;;;;;;2.28;1.10;;;;;;;;;;6172270;28;20043;-84
2022/06/22 15:46:21;;;;;;;2.90;1.15;;;;;;;;;;6188495;28;20289;-83
2022/06/22 15:49:41;;;;;;;1.15;0.88;;;;;;;;;;6178242;28;20050;-85
2022/06/22 15:53:14;;;;;;;0.93;0.93;;;;;;;;;;6149083;28;20107;-83
2022/06/22 15:56:26;;;;;;;1.85;1.02;;;;;;;;;;6182018;28;20038;-84
2022/06/22 15:59:31;;;;;;;1.00;0.90;;;;;;;;;;6181727;28;20123;-83
2022/06/22 16:02:37;;;;;;;2.47;1.05;;;;;;;;;;6172359;28;20114;-84
2022/06/22 16:05:51;;;;;;;1.70;1.02;;;;;;;;;;6175901;28;20070;-82
2022/06/22 16:08:57;;;;;;;1.92;1.08;;;;;;;;;;6183742;28;20101;-85
2022/06/22 16:15:37;;;;;;;;;;;;;;;;;;6173697;28;20046;-84
2022/06/22 16:19:01;;;;;;;1.20;1.10;;;;;;;;;;6189690;28;19922;-85
2022/06/22 16:22:10;;;;;;;6.25;1.30;;;;;;;;;;6181101;28;20468;-84
2022/06/22 16:25:44;;;;;;;2.35;1.15;;;;;;;;;;6179871;28;20050;-83
2022/06/22 16:28:50;;;;;;;2.25;1.20;;;;;;;;;;6180175;28;20074;-84
2022/06/22 16:31:57;;;;;;;1.13;1.08;;;;;;;;;;6170339;28;20046;-82
2022/06/22 16:35:05;;;;;;;1.80;1.20;;;;;;;;;;6151712;28;20055;-81
2022/06/22 16:38:22;;;;;;;2.55;1.50;;;;;;;;;;6164054;28;20118;-82
2022/06/22 16:41:35;;;;;;;2.08;1.40;;;;;;;;;;6170102;28;20034;-81
2022/06/22 16:45:10;;;;;;;2.03;1.23;;;;;;;;;;6160276;28;20050;-82
2022/06/22 16:48:24;;;;;;;1.25;1.15;;;;;;;;;;6166702;28;20050;-83
2022/06/22 16:51:34;;;;;;;4.13;1.60;;;;;;;;;;6157174;28;20416;-83
2022/06/22 16:54:41;;;;;;;1.20;1.10;;;;;;;;;;6177784;28;20046;-83
2022/06/22 16:57:51;;;;;;;1.30;1.20;;;;;;;;;;6158093;28;20090;-83
2022/06/22 17:01:15;;;;;;;1.50;1.30;;;;;;;;;;6168042;28;20051;-83
2022/06/22 17:04:41;;;;;;;3.72;1.70;;;;;;;;;;6140214;28;20086;-82
2022/06/22 17:07:55;;;;;;;2.88;1.40;;;;;;;;;;6167726;28;20132;-83
2022/06/22 17:11:07;;;;;;;1.27;1.10;;;;;;;;;;6140205;28;20130;-82
2022/06/22 17:14:21;;;;;;;2.72;1.42;;;;;;;;;;6165425;28;20061;-81
2022/06/22 17:17:56;;;;;;;2.03;1.30;;;;;;;;;;6159691;28;20121;-81
2022/06/22 17:21:18;;;;;;;3.38;1.25;;;;;;;;;;6174021;28;20520;-81
2022/06/22 17:24:38;;;;;;;1.10;1.00;;;;;;;;;;6158832;28;20102;-82
2022/06/22 17:28:03;;;;;;;2.00;1.20;;;;;;;;;;6166672;28;20051;-82
2022/06/22 17:31:10;;;;;;;2.35;1.10;;;;;;;;;;6149605;28;20403;-82
2022/06/22 17:34:24;;;;;;;2.03;1.08;;;;;;;;;;6182823;28;20047;-82
2022/06/22 17:37:36;;;;;;;1.50;1.20;;;;;;;;;;6170164;28;20560;-81
2022/06/22 17:41:01;;;;;;;1.38;1.08;;;;;;;;;;6171858;28;20070;-80
2022/06/22 17:44:21;;;;;;;1.75;1.10;;;;;;;;;;6170118;28;20132;-81
2022/06/22 17:47:28;;;;;;;2.78;1.30;;;;;;;;;;6173374;28;20050;-81
2022/06/22 17:50:36;;;;;;;1.00;1.00;;;;;;;;;;6182067;28;20051;-81
2022/06/22 17:53:40;;;;;;;2.35;1.40;;;;;;;;;;6180344;28;20052;-82
2022/06/22 17:56:46;;;;;;;1.55;1.27;;;;;;;;;;6189452;28;20050;-82
2022/06/22 18:00:17;;;;;;;3.90;1.20;;;;;;;;;;6173819;28;20107;-81
2022/06/22 18:03:27;;;;;;;3.50;1.20;;;;;;;;;;6169652;28;20157;-81
2022/06/22 18:06:37;;;;;;;1.10;1.00;;;;;;;;;;6181169;28;20473;-80
2022/06/22 18:09:45;;;;;;;1.95;1.00;;;;;;;;;;6175581;28;20141;-77
2022/06/22 18:12:51;;;;;;;1.30;1.00;;;;;;;;;;6190684;28;20050;-77
2022/06/22 18:16:02;;;;;;;3.05;1.27;;;;;;;;;;6187757;28;20050;-77
2022/06/22 18:19:06;;;;;;;1.40;1.10;;;;;;;;;;6182030;28;20123;-77
2022/06/22 18:22:30;;;;;;;1.10;1.00;;;;;;;;;;6153336;28;20043;-77
2022/06/22 18:25:39;;;;;;;3.65;1.13;;;;;;;;;;6178002;28;20057;-77
2022/06/22 18:28:45;;;;;;;0.98;0.98;;;;;;;;;;6180865;28;20117;-77
2022/06/22 18:31:54;;;;;;;3.83;1.20;;;;;;;;;;6191623;28;20043;-77
2022/06/22 18:35:20;;;;;;;1.40;1.30;;;;;;;;;;6172476;28;20600;-77
2022/06/22 18:42:09;;;;;;;2.03;1.40;;;;;;;;;;6165665;28;20562;-77
2022/06/22 18:45:21;;;;;;;1.42;1.33;;;;;;;;;;6191367;28;20078;-76
2022/06/22 18:48:43;;;;;;;2.80;1.42;;;;;;;;;;6155151;28;20047;-77
2022/06/22 18:51:51;;;;;;;1.80;1.40;;;;;;;;;;6169853;28;20126;-78
2022/06/22 18:54:57;;;;;;;3.60;2.03;;;;;;;;;;6169610;28;20062;-77
2022/06/22 18:58:22;;;;;;;1.90;1.60;;;;;;;;;;6172412;28;20102;-78
2022/06/22 19:01:29;;;;;;;1.90;1.80;;;;;;;;;;6157017;28;20035;-78
2022/06/22 19:04:31;;;;;;;3.55;1.92;;;;;;;;;;6147168;28;20055;-78
2022/06/22 19:07:41;;;;;;;3.00;2.00;;;;;;;;;;6154417;28;20122;-78
2022/06/22 19:10:51;;;;;;;4.32;1.67;;;;;;;;;;6173287;28;20423;-78
2022/06/22 19:14:03;;;;;;;1.60;1.40;;;;;;;;;;6183006;28;20065;-78
2022/06/22 19:17:26;;;;;;;1.75;1.60;;;;;;;;;;6155914;28;20122;-78
2022/06/22 19:20:30;;;;;;;1.75;1.65;;;;;;;;;;6167588;28;20046;-78
2022/06/22 19:24:09;;;;;;;2.35;1.50;;;;;;;;;;6164976;28;20103;-77
2022/06/22 19:27:35;;;;;;;2.55;1.67;;;;;;;;;;6170515;28;20043;-77
2022/06/22 19:30:51;;;;;;;1.77;1.40;;;;;;;;;;6169467;28;20465;-76
2022/06/22 19:34:16;;;;;;;2.03;1.55;;;;;;;;;;6180644;28;20050;-77
2022/06/22 19:37:35;;;;;;;1.42;1.33;;;;;;;;;;6162803;28;20038;-77
2022/06/22 19:40:59;;;;;;;3.90;1.55;;;;;;;;;;6169319;28;20161;-76
2022/06/22 19:44:12;;;;;;;1.40;1.30;;;;;;;;;;6175170;28;20054;-77
2022/06/22 19:47:24;;;;;;;1.52;1.42;;;;;;;;;;6167105;28;20049;-75
2022/06/22 19:50:29;;;;;;;3.53;1.67;;;;;;;;;;6171658;28;20185;-77
2022/06/22 19:53:45;;;;;;;1.85;1.48;;;;;;;;;;6137067;28;20038;-77
2022/06/22 19:56:51;;;;;;;2.28;1.85;;;;;;;;;;6168515;28;20125;-77
2022/06/22 19:59:54;;;;;;;3.60;2.10;;;;;;;;;;6139976;28;20158;-76
2022/06/22 20:03:13;;;;;;;7.70;2.42;;;;;;;;;;6148416;28;20149;-77